Time;durP1;ratioP1;P1;durP2;ratioP2;P2;SDS_P1;SDS_P2;PMS_P1;PMS_P2;Temp;Humidity;BMP_temperature;BMP_pressure;BME280_temperature;BME280_humidity;BME280_pressure;Samples;Min_cycle;Max_cycle;Signal;HPM_P1;HPM_P2
2023/08/01 00:00:32;;;;;;;3.47;3.37;;;20.60;99.90;;;;;;5020677;28;20744;-57
2023/08/01 00:02:59;;;;;;;5.37;3.80;;;20.60;99.90;;;;;;5021314;28;20206;-57
2023/08/01 00:05:26;;;;;;;3.30;3.20;;;20.60;99.90;;;;;;5021870;28;20203;-58
2023/08/01 00:07:54;;;;;;;3.20;3.10;;;20.50;99.90;;;;;;5014986;28;20219;-57
2023/08/01 00:10:21;;;;;;;3.63;3.07;;;20.50;99.90;;;;;;5018798;28;20576;-58
2023/08/01 00:12:52;;;;;;;5.40;3.20;;;20.40;99.90;;;;;;5023987;28;20206;-57
2023/08/01 00:15:19;;;;;;;2.87;2.73;;;20.40;99.90;;;;;;5032472;28;20251;-57
2023/08/01 00:17:46;;;;;;;2.60;2.50;;;20.40;99.90;;;;;;5032735;28;20222;-57
2023/08/01 00:20:13;;;;;;;2.57;2.47;;;20.40;99.90;;;;;;5032632;28;20272;-57
2023/08/01 00:22:40;;;;;;;3.67;3.20;;;20.50;99.90;;;;;;5032695;28;20260;-57
2023/08/01 00:25:07;;;;;;;2.73;2.57;;;20.40;99.90;;;;;;5033449;28;20761;-57
2023/08/01 00:27:34;;;;;;;2.23;2.13;;;20.40;99.90;;;;;;5018834;28;20265;-57
2023/08/01 00:30:02;;;;;;;3.17;2.97;;;20.40;99.90;;;;;;5032927;28;20198;-58
2023/08/01 00:32:29;;;;;;;2.23;2.13;;;20.40;99.90;;;;;;5018789;28;20250;-57
2023/08/01 00:34:56;;;;;;;3.00;2.90;;;20.40;99.90;;;;;;5030085;28;20198;-57
2023/08/01 00:37:23;;;;;;;2.50;2.40;;;20.40;99.90;;;;;;5018699;28;20265;-57
2023/08/01 00:39:50;;;;;;;2.73;2.53;;;20.30;99.90;;;;;;5017532;28;20257;-57
2023/08/01 00:42:17;;;;;;;2.73;2.53;;;20.30;99.90;;;;;;5034066;28;20207;-57
2023/08/01 00:44:44;;;;;;;6.63;2.63;;;20.20;99.90;;;;;;5033964;28;20778;-57
2023/08/01 00:47:12;;;;;;;2.80;2.60;;;20.10;99.90;;;;;;5033349;28;20276;-57
2023/08/01 00:49:40;;;;;;;2.67;2.57;;;20.10;99.90;;;;;;5022255;28;20195;-57
2023/08/01 00:52:07;;;;;;;2.37;2.27;;;20.10;99.90;;;;;;5029163;28;20258;-57
2023/08/01 00:54:36;;;;;;;2.63;2.53;;;20.20;99.90;;;;;;5014035;28;20665;-57
2023/08/01 00:57:03;;;;;;;2.87;2.63;;;20.20;99.90;;;;;;5013832;28;20622;-57
2023/08/01 00:59:31;;;;;;;2.77;2.57;;;20.20;99.90;;;;;;5017034;28;20202;-58
2023/08/01 01:01:58;;;;;;;2.93;2.77;;;20.30;99.90;;;;;;5024854;28;20244;-57
2023/08/01 01:04:27;;;;;;;2.57;2.47;;;20.30;99.90;;;;;;5033336;28;20215;-56
2023/08/01 01:07:00;;;;;;;2.57;2.47;;;20.30;99.90;;;;;;5032795;28;20206;-57
2023/08/01 01:09:31;;;;;;;4.50;3.10;;;20.20;99.90;;;;;;5023926;28;20665;-57
2023/08/01 01:11:58;;;;;;;2.83;2.63;;;20.20;99.90;;;;;;5022417;28;20740;-57
2023/08/01 01:14:25;;;;;;;2.67;2.57;;;20.10;99.90;;;;;;5013308;28;20199;-57
2023/08/01 01:16:52;;;;;;;2.63;2.43;;;20.00;99.90;;;;;;5013865;28;20234;-56
2023/08/01 01:19:19;;;;;;;3.03;2.90;;;20.10;99.90;;;;;;5013838;28;20211;-57
2023/08/01 01:21:49;;;;;;;3.20;2.97;;;20.10;99.90;;;;;;5013724;28;20710;-57
2023/08/01 01:24:18;;;;;;;2.60;2.50;;;20.10;99.90;;;;;;5026744;28;20268;-57
2023/08/01 01:26:47;;;;;;;3.93;2.33;;;20.10;99.90;;;;;;5033227;28;20199;-57
2023/08/01 01:29:15;;;;;;;2.73;2.53;;;20.10;99.90;;;;;;5031733;28;20222;-56
2023/08/01 01:31:42;;;;;;;2.43;2.23;;;20.10;99.90;;;;;;5016917;28;20277;-57
2023/08/01 01:34:10;;;;;;;3.97;3.10;;;20.10;99.90;;;;;;5013300;28;20199;-56
2023/08/01 01:36:37;;;;;;;3.20;3.00;;;20.00;99.90;;;;;;5022093;28;20202;-57
2023/08/01 01:39:05;;;;;;;2.60;2.50;;;20.00;99.90;;;;;;5021850;28;20222;-57
2023/08/01 01:41:32;;;;;;;3.00;2.57;;;19.90;99.90;;;;;;5013233;28;20203;-57
2023/08/01 01:43:59;;;;;;;2.83;2.57;;;19.90;99.90;;;;;;5013092;28;20230;-57
2023/08/01 01:46:26;;;;;;;5.23;3.13;;;19.70;99.90;;;;;;5013369;28;20257;-57
2023/08/01 01:48:53;;;;;;;3.10;2.80;;;19.70;99.90;;;;;;5019938;28;20219;-56
2023/08/01 01:51:21;;;;;;;3.07;2.70;;;19.70;99.90;;;;;;5019444;28;20203;-56
2023/08/01 01:53:48;;;;;;;2.90;2.70;;;19.60;99.90;;;;;;5015287;28;20322;-56
2023/08/01 01:56:16;;;;;;;2.73;2.60;;;19.60;99.90;;;;;;5019968;28;20199;-57
2023/08/01 01:58:43;;;;;;;4.13;2.73;;;19.50;99.90;;;;;;5019398;28;20728;-57
2023/08/01 02:01:10;;;;;;;3.47;3.17;;;19.50;99.90;;;;;;5023757;28;20203;-56
2023/08/01 02:03:37;;;;;;;3.77;2.30;;;19.60;99.90;;;;;;5019983;28;20195;-57
2023/08/01 02:06:04;;;;;;;3.20;2.87;;;19.50;99.90;;;;;;5032664;28;20202;-57
2023/08/01 02:08:31;;;;;;;3.53;3.23;;;19.50;99.90;;;;;;5032393;28;20223;-57
2023/08/01 02:10:58;;;;;;;3.00;2.80;;;19.50;99.90;;;;;;5021226;28;20281;-57
2023/08/01 02:13:28;;;;;;;4.10;3.17;;;19.50;99.90;;;;;;5026572;28;20281;-57
2023/08/01 02:15:55;;;;;;;2.93;2.73;;;19.50;99.90;;;;;;5022654;28;20199;-57
2023/08/01 02:18:22;;;;;;;3.77;3.40;;;19.40;99.90;;;;;;5018566;28;20222;-57
2023/08/01 02:20:49;;;;;;;5.03;3.60;;;19.40;99.90;;;;;;5012497;28;20254;-56
2023/08/01 02:23:16;;;;;;;3.20;2.90;;;19.40;99.90;;;;;;5019206;28;20207;-57
2023/08/01 02:25:43;;;;;;;4.43;3.70;;;19.40;99.90;;;;;;5020683;28;20214;-56
2023/08/01 02:28:10;;;;;;;3.83;3.37;;;19.40;99.90;;;;;;5032156;28;20272;-57
2023/08/01 02:30:39;;;;;;;5.33;4.27;;;19.40;99.90;;;;;;5023538;28;20207;-57
2023/08/01 02:33:06;;;;;;;4.00;3.50;;;19.40;99.90;;;;;;5020175;28;20203;-57
2023/08/01 02:35:33;;;;;;;3.87;3.57;;;19.40;99.90;;;;;;5019035;28;20266;-57
2023/08/01 02:38:02;;;;;;;4.10;3.73;;;19.50;99.90;;;;;;5015634;28;20234;-57
2023/08/01 02:40:29;;;;;;;3.40;3.10;;;19.50;99.90;;;;;;5031957;28;20197;-56
2023/08/01 02:42:57;;;;;;;3.90;3.37;;;19.50;99.90;;;;;;5028705;28;20221;-57
2023/08/01 02:45:24;;;;;;;4.70;4.00;;;19.50;99.90;;;;;;5020221;28;20211;-56
2023/08/01 02:47:52;;;;;;;4.33;3.90;;;19.50;99.90;;;;;;5015864;28;20592;-57
2023/08/01 02:50:18;;;;;;;4.43;3.60;;;19.50;99.90;;;;;;5020137;28;20253;-57
2023/08/01 02:52:45;;;;;;;3.67;3.47;;;19.50;99.90;;;;;;5011851;28;20203;-57
2023/08/01 02:55:12;;;;;;;3.40;3.20;;;19.50;99.90;;;;;;5012218;28;20629;-56
2023/08/01 02:57:39;;;;;;;3.77;3.60;;;19.50;99.90;;;;;;5014394;28;20316;-56
2023/08/01 03:00:11;;;;;;;5.27;3.63;;;19.50;99.90;;;;;;5021792;28;20199;-56
2023/08/01 03:02:38;;;;;;;2.77;2.57;;;19.50;99.90;;;;;;5015557;28;20196;-56
2023/08/01 03:05:07;;;;;;;3.80;3.60;;;19.50;99.90;;;;;;5031454;28;20218;-57
2023/08/01 03:07:34;;;;;;;3.60;3.40;;;19.40;99.90;;;;;;5029361;28;20222;-56
2023/08/01 03:10:02;;;;;;;3.20;3.00;;;19.40;99.90;;;;;;5029927;28;20734;-57
2023/08/01 03:12:29;;;;;;;3.60;3.10;;;19.40;99.90;;;;;;5017892;28;20282;-56
2023/08/01 03:14:56;;;;;;;3.50;3.20;;;19.40;99.90;;;;;;5020943;28;20194;-57
2023/08/01 03:17:22;;;;;;;3.27;3.07;;;19.40;99.90;;;;;;5020319;28;20222;-56
2023/08/01 03:19:50;;;;;;;3.13;2.93;;;19.40;99.90;;;;;;5012861;28;20261;-57
2023/08/01 03:22:18;;;;;;;3.23;2.93;;;19.30;99.90;;;;;;5030662;28;20294;-56
2023/08/01 03:24:45;;;;;;;3.53;3.23;;;19.30;99.90;;;;;;5031343;28;20696;-56
2023/08/01 03:27:12;;;;;;;3.10;3.00;;;19.30;99.90;;;;;;5017400;28;20301;-57
2023/08/01 03:29:39;;;;;;;3.03;2.83;;;19.30;99.90;;;;;;5017263;28;20708;-57
2023/08/01 03:32:06;;;;;;;3.33;3.13;;;19.30;99.90;;;;;;5024020;28;20203;-57
2023/08/01 03:34:33;;;;;;;3.70;3.43;;;19.30;99.90;;;;;;5025022;28;20199;-57
2023/08/01 03:37:00;;;;;;;3.10;2.90;;;19.30;99.90;;;;;;5019293;28;20199;-57
2023/08/01 03:39:29;;;;;;;2.90;2.70;;;19.30;99.90;;;;;;5027454;28;20202;-56
2023/08/01 03:41:55;;;;;;;3.70;3.13;;;19.30;99.90;;;;;;5027231;28;20573;-56
2023/08/01 03:44:23;;;;;;;3.70;3.53;;;19.30;99.90;;;;;;5017969;28;20261;-56
2023/08/01 03:46:50;;;;;;;3.10;3.00;;;19.30;99.90;;;;;;5011765;28;20199;-57
2023/08/01 03:49:18;;;;;;;3.60;3.40;;;19.30;99.90;;;;;;5011968;28;20203;-56
2023/08/01 03:51:45;;;;;;;2.63;2.47;;;19.30;99.90;;;;;;5011506;28;20203;-57
2023/08/01 03:54:12;;;;;;;3.43;3.30;;;19.20;99.90;;;;;;5011266;28;20210;-56
2023/08/01 03:56:42;;;;;;;3.57;3.27;;;19.20;99.90;;;;;;5028586;28;20211;-57
2023/08/01 03:59:10;;;;;;;4.30;3.90;;;19.10;99.90;;;;;;5029808;28;20247;-57
2023/08/01 04:01:37;;;;;;;3.53;3.33;;;19.10;99.90;;;;;;5011338;28;20565;-57
2023/08/01 04:04:03;;;;;;;3.40;3.23;;;19.10;99.90;;;;;;5011651;28;20298;-56
2023/08/01 04:06:30;;;;;;;3.13;2.90;;;19.10;99.90;;;;;;5030997;28;20222;-56
2023/08/01 04:08:59;;;;;;;3.73;3.43;;;19.10;99.90;;;;;;5030991;28;20231;-57
2023/08/01 04:11:26;;;;;;;3.20;3.00;;;19.20;99.90;;;;;;5031239;28;20238;-56
2023/08/01 04:13:55;;;;;;;3.93;3.73;;;19.10;99.90;;;;;;5030788;28;20285;-56
2023/08/01 04:16:22;;;;;;;3.43;3.23;;;19.10;99.90;;;;;;5032525;28;20198;-56
2023/08/01 04:18:49;;;;;;;4.33;4.00;;;19.10;99.90;;;;;;5030669;28;20226;-58
2023/08/01 04:21:16;;;;;;;4.83;4.37;;;19.20;99.90;;;;;;5021382;28;20207;-56
2023/08/01 04:23:43;;;;;;;4.63;3.83;;;19.20;99.90;;;;;;5022263;28;20654;-57
2023/08/01 04:26:11;;;;;;;4.57;4.20;;;19.20;99.90;;;;;;5019373;28;20561;-66
2023/08/01 04:28:37;;;;;;;3.40;3.20;;;19.20;99.90;;;;;;5022802;28;20225;-66
2023/08/01 04:31:06;;;;;;;4.43;4.03;;;19.20;99.90;;;;;;5023395;28;20264;-67
2023/08/01 04:33:33;;;;;;;4.27;3.80;;;19.20;99.90;;;;;;5027113;28;20244;-55
2023/08/01 04:36:00;;;;;;;5.37;3.57;;;19.20;99.90;;;;;;5028117;28;20198;-57
2023/08/01 04:38:27;;;;;;;5.70;5.13;;;19.10;99.90;;;;;;5025214;28;20223;-63
2023/08/01 04:40:54;;;;;;;3.40;3.30;;;19.00;99.90;;;;;;5026081;28;20264;-62
2023/08/01 04:43:20;;;;;;;3.47;3.37;;;19.10;99.90;;;;;;5024560;28;20738;-60
2023/08/01 04:45:47;;;;;;;4.30;4.00;;;19.00;99.90;;;;;;5025384;28;20296;-61
2023/08/01 04:48:16;;;;;;;4.47;4.10;;;19.00;99.90;;;;;;5025208;28;20268;-68
2023/08/01 04:50:43;;;;;;;4.47;4.17;;;18.90;99.90;;;;;;5027102;28;20198;-63
2023/08/01 04:53:11;;;;;;;4.87;4.20;;;18.90;99.90;;;;;;5023466;28;20210;-66
2023/08/01 04:55:38;;;;;;;5.00;4.60;;;18.90;99.90;;;;;;5025912;28;20282;-66
2023/08/01 04:58:05;;;;;;;3.60;3.40;;;18.90;99.90;;;;;;5026485;28;20301;-62
2023/08/01 05:00:32;;;;;;;5.57;3.73;;;18.90;99.90;;;;;;5019872;28;20195;-61
2023/08/01 05:02:58;;;;;;;3.73;3.53;;;18.90;99.90;;;;;;5017842;28;20256;-61
2023/08/01 05:05:27;;;;;;;4.20;3.83;;;18.90;99.90;;;;;;5033381;28;20264;-61
2023/08/01 05:07:54;;;;;;;5.23;4.07;;;18.90;99.90;;;;;;5027320;28;20211;-60
2023/08/01 05:10:21;;;;;;;5.50;3.97;;;18.90;99.90;;;;;;5013899;28;20669;-60
2023/08/01 05:12:48;;;;;;;4.23;3.77;;;18.80;99.90;;;;;;5025990;28;20199;-62
2023/08/01 05:15:15;;;;;;;3.30;3.10;;;18.90;99.90;;;;;;5021226;28;20704;-61
2023/08/01 05:17:44;;;;;;;3.50;3.30;;;18.90;99.90;;;;;;5028295;28;20569;-61
2023/08/01 05:20:11;;;;;;;3.63;3.23;;;18.90;99.90;;;;;;5032891;28;20206;-61
2023/08/01 05:22:40;;;;;;;5.17;4.77;;;18.90;99.90;;;;;;5032681;28;20228;-61
2023/08/01 05:25:07;;;;;;;3.57;3.27;;;18.90;99.90;;;;;;5033119;28;20254;-60
2023/08/01 05:27:35;;;;;;;5.17;3.87;;;19.00;99.90;;;;;;5032068;28;20782;-60
2023/08/01 05:30:03;;;;;;;4.10;3.27;;;19.00;99.90;;;;;;5027335;28;20289;-64
2023/08/01 05:32:30;;;;;;;3.87;3.53;;;18.90;99.90;;;;;;5024492;28;20199;-62
2023/08/01 05:34:56;;;;;;;4.37;3.73;;;18.90;99.90;;;;;;5026005;28;20564;-62
2023/08/01 05:37:24;;;;;;;3.67;3.47;;;18.90;99.90;;;;;;5023788;28;20280;-62
2023/08/01 05:39:53;;;;;;;4.53;4.17;;;19.00;99.90;;;;;;5023940;28;20205;-63
2023/08/01 05:42:19;;;;;;;4.70;4.30;;;19.00;99.90;;;;;;5022147;28;20203;-62
2023/08/01 05:44:46;;;;;;;4.20;4.00;;;19.00;99.90;;;;;;5023732;28;20252;-62
2023/08/01 05:47:13;;;;;;;4.93;4.53;;;19.10;99.90;;;;;;5026113;28;20226;-62
2023/08/01 05:49:41;;;;;;;5.33;3.90;;;19.20;99.90;;;;;;5024272;28;20249;-61
2023/08/01 05:52:08;;;;;;;5.53;3.93;;;19.10;99.90;;;;;;5023942;28;20732;-61
2023/08/01 05:54:35;;;;;;;4.43;4.03;;;19.10;99.90;;;;;;5023786;28;20203;-61
2023/08/01 05:57:04;;;;;;;5.57;4.43;;;19.10;99.90;;;;;;5027690;28;20194;-63
2023/08/01 05:59:31;;;;;;;3.30;3.10;;;19.10;99.90;;;;;;5024485;28;20762;-62
2023/08/01 06:01:58;;;;;;;4.20;3.80;;;19.00;99.90;;;;;;5024973;28;20199;-63
2023/08/01 06:04:25;;;;;;;5.07;4.53;;;19.10;99.90;;;;;;5012924;28;20207;-60
2023/08/01 06:06:52;;;;;;;4.40;4.10;;;19.00;99.90;;;;;;5014836;28;20242;-63
2023/08/01 06:09:19;;;;;;;4.33;4.03;;;18.90;99.90;;;;;;5012696;28;20199;-61
2023/08/01 06:11:46;;;;;;;3.60;3.30;;;19.00;99.90;;;;;;5022955;28;20202;-61
2023/08/01 06:14:14;;;;;;;3.07;2.87;;;19.00;99.90;;;;;;5031855;28;20210;-62
2023/08/01 06:16:41;;;;;;;4.20;3.97;;;19.00;99.90;;;;;;5031942;28;20209;-62
2023/08/01 06:19:08;;;;;;;4.67;3.80;;;19.00;99.90;;;;;;5032146;28;20218;-61
2023/08/01 06:21:35;;;;;;;3.97;3.67;;;19.00;99.90;;;;;;5018834;28;20206;-61
2023/08/01 06:24:02;;;;;;;4.33;4.03;;;19.00;99.90;;;;;;5018568;28;20203;-62
2023/08/01 06:26:29;;;;;;;4.23;3.87;;;19.10;99.90;;;;;;5030497;28;20246;-62
2023/08/01 06:28:56;;;;;;;3.97;3.73;;;19.10;99.90;;;;;;5020107;28;20284;-61
2023/08/01 06:31:24;;;;;;;4.37;3.77;;;19.20;99.90;;;;;;5023429;28;20657;-61
2023/08/01 06:33:51;;;;;;;6.13;4.27;;;19.20;99.90;;;;;;5022925;28;20202;-61
2023/08/01 06:36:18;;;;;;;3.57;3.37;;;19.20;99.90;;;;;;5021946;28;20199;-60
2023/08/01 06:38:46;;;;;;;4.03;3.73;;;19.20;99.90;;;;;;5018329;28;20746;-54
2023/08/01 06:41:13;;;;;;;3.13;3.00;;;19.20;99.90;;;;;;5017857;28;20210;-63
2023/08/01 06:43:40;;;;;;;4.93;3.37;;;19.30;99.90;;;;;;5020136;28;20264;-64
2023/08/01 06:46:07;;;;;;;5.03;3.83;;;19.30;99.90;;;;;;5023594;28;20249;-63
2023/08/01 06:48:36;;;;;;;3.90;3.37;;;19.40;99.90;;;;;;5019323;28;20226;-61
2023/08/01 06:51:03;;;;;;;5.53;4.33;;;19.40;99.90;;;;;;5027179;28;20206;-63
2023/08/01 06:53:29;;;;;;;8.50;6.17;;;19.30;99.90;;;;;;5025756;28;20301;-62
2023/08/01 06:55:56;;;;;;;5.23;3.97;;;19.30;99.90;;;;;;5022882;28;20672;-63
2023/08/01 06:58:23;;;;;;;4.60;4.13;;;19.30;99.90;;;;;;5022371;28;20284;-63
2023/08/01 07:00:50;;;;;;;4.30;4.00;;;19.40;99.90;;;;;;5023195;28;20854;-63
2023/08/01 07:03:17;;;;;;;4.10;3.80;;;19.30;99.90;;;;;;5022547;28;20265;-65
2023/08/01 07:05:46;;;;;;;4.57;4.10;;;19.30;99.90;;;;;;5020969;28;20226;-64
2023/08/01 07:08:13;;;;;;;4.00;3.70;;;19.30;99.90;;;;;;5023058;28;20234;-66
2023/08/01 07:10:41;;;;;;;4.13;3.83;;;19.30;99.90;;;;;;5022827;28;20269;-62
2023/08/01 07:13:09;;;;;;;3.47;3.20;;;19.30;99.90;;;;;;5021017;28;20194;-63
2023/08/01 07:15:36;;;;;;;3.93;3.33;;;19.40;99.90;;;;;;5018923;28;20731;-63
2023/08/01 07:18:03;;;;;;;5.37;3.77;;;19.50;99.90;;;;;;5023516;28;20250;-61
2023/08/01 07:20:30;;;;;;;4.63;3.23;;;19.60;99.90;;;;;;5022530;28;20195;-60
2023/08/01 07:23:01;;;;;;;7.03;4.73;;;19.70;99.90;;;;;;5026029;28;20289;-61
2023/08/01 07:25:28;;;;;;;4.17;3.87;;;19.70;99.90;;;;;;5025883;28;20209;-61
2023/08/01 07:27:55;;;;;;;5.20;4.40;;;19.70;99.90;;;;;;5026015;28;20222;-61
2023/08/01 07:30:22;;;;;;;5.30;4.13;;;19.70;99.90;;;;;;5027256;28;20253;-63
2023/08/01 07:32:52;;;;;;;4.73;4.27;;;19.70;99.90;;;;;;5026960;28;20203;-62
2023/08/01 07:35:19;;;;;;;2.83;2.73;;;19.80;99.90;;;;;;5012869;28;20669;-64
2023/08/01 07:37:46;;;;;;;3.70;3.03;;;19.80;99.90;;;;;;5015044;28;20226;-63
2023/08/01 07:40:15;;;;;;;6.67;3.97;;;19.90;99.90;;;;;;5015438;28;20264;-65
2023/08/01 07:42:41;;;;;;;4.73;3.97;;;19.80;99.90;;;;;;5014499;28;20677;-66
2023/08/01 07:45:09;;;;;;;4.30;3.93;;;19.80;99.90;;;;;;5011937;28;20680;-65
2023/08/01 07:47:36;;;;;;;3.90;3.27;;;19.80;99.90;;;;;;5011480;28;20277;-64
2023/08/01 07:50:04;;;;;;;3.90;3.23;;;19.70;99.90;;;;;;5016786;28;20676;-58
2023/08/01 07:52:31;;;;;;;3.83;3.63;;;19.60;99.90;;;;;;5025076;28;20199;-60
2023/08/01 07:54:58;;;;;;;4.30;4.00;;;19.60;99.90;;;;;;5022899;28;20207;-63
2023/08/01 07:57:26;;;;;;;4.93;4.30;;;19.50;99.90;;;;;;5031849;28;20229;-62
2023/08/01 07:59:53;;;;;;;5.57;4.33;;;19.40;99.90;;;;;;5034801;28;20206;-55
2023/08/01 08:02:21;;;;;;;6.13;4.00;;;19.30;99.90;;;;;;5034026;28;20199;-59
2023/08/01 08:04:48;;;;;;;6.03;4.67;;;19.30;99.90;;;;;;5024734;28;20210;-54
2023/08/01 08:07:15;;;;;;;4.50;4.10;;;19.20;99.90;;;;;;5028631;28;20295;-61
2023/08/01 08:09:42;;;;;;;5.40;4.13;;;19.20;99.90;;;;;;5026177;28;20206;-60
2023/08/01 08:12:09;;;;;;;7.90;4.97;;;19.10;99.90;;;;;;5024354;28;20199;-62
2023/08/01 08:14:38;;;;;;;5.97;4.70;;;19.10;99.90;;;;;;5025985;28;20217;-62
2023/08/01 08:17:05;;;;;;;5.37;4.80;;;19.20;99.90;;;;;;5026160;28;20195;-62
2023/08/01 08:19:32;;;;;;;4.57;4.17;;;19.30;99.90;;;;;;5025810;28;20260;-62
2023/08/01 08:21:59;;;;;;;4.77;4.27;;;19.30;99.90;;;;;;5027149;28;20673;-63
2023/08/01 08:24:26;;;;;;;6.33;4.40;;;19.30;99.90;;;;;;5026421;28;20202;-62
2023/08/01 08:26:53;;;;;;;5.90;5.33;;;19.30;99.90;;;;;;5025858;28;20226;-63
2023/08/01 08:29:20;;;;;;;5.37;4.87;;;19.30;99.90;;;;;;5029704;28;20213;-64
2023/08/01 08:31:49;;;;;;;5.30;4.77;;;19.20;99.90;;;;;;5031530;28;20203;-62
2023/08/01 08:34:16;;;;;;;5.30;4.13;;;19.20;99.90;;;;;;5025690;28;20203;-61
2023/08/01 08:36:43;;;;;;;4.77;4.47;;;19.20;99.90;;;;;;5025294;28;20615;-61
2023/08/01 08:39:10;;;;;;;4.63;3.63;;;19.30;99.90;;;;;;5025122;28;20292;-63
2023/08/01 08:41:43;;;;;;;4.13;3.83;;;19.30;99.90;;;;;;5029880;28;20214;-62
2023/08/01 08:44:12;;;;;;;3.73;3.47;;;19.40;99.90;;;;;;5024454;28;21024;-64
2023/08/01 08:46:43;;;;;;;4.40;4.00;;;19.40;99.90;;;;;;5025438;28;20637;-62
2023/08/01 08:49:11;;;;;;;4.37;3.90;;;19.40;99.90;;;;;;5025498;28;20218;-63
2023/08/01 08:51:39;;;;;;;3.53;3.20;;;19.40;99.90;;;;;;5025616;28;20199;-61
2023/08/01 08:54:07;;;;;;;4.20;3.93;;;19.50;99.90;;;;;;5023683;28;20268;-54
2023/08/01 08:56:35;;;;;;;5.30;3.60;;;19.50;99.90;;;;;;5026755;28;20231;-52
2023/08/01 08:59:02;;;;;;;4.43;4.03;;;19.60;99.90;;;;;;5018194;28;20910;-62
2023/08/01 09:01:31;;;;;;;3.70;3.50;;;19.70;99.90;;;;;;5023405;28;20669;-63
2023/08/01 09:03:58;;;;;;;4.00;3.80;;;19.60;99.90;;;;;;5024261;28;20672;-61
2023/08/01 09:06:31;;;;;;;3.67;3.37;;;19.70;99.90;;;;;;5025472;28;20316;-58
2023/08/01 09:09:04;;;;;;;4.87;3.70;;;19.80;99.90;;;;;;5024868;28;20696;-61
2023/08/01 09:11:43;;;;;;;3.60;3.33;;;19.80;99.90;;;;;;5024115;28;20294;-61
2023/08/01 09:14:11;;;;;;;5.07;3.83;;;19.80;99.90;;;;;;5026834;28;20210;-60
2023/08/01 09:16:38;;;;;;;7.33;4.80;;;19.80;99.90;;;;;;5025123;28;20248;-62
2023/08/01 09:19:07;;;;;;;5.87;3.83;;;19.80;99.90;;;;;;5024047;28;20222;-62
2023/08/01 09:21:37;;;;;;;4.60;4.07;;;19.90;99.90;;;;;;5022474;28;20210;-63
2023/08/01 09:24:12;;;;;;;4.33;4.00;;;19.90;99.90;;;;;;5024947;28;20205;-61
2023/08/01 09:26:39;;;;;;;4.37;3.97;;;19.90;99.90;;;;;;5021494;28;20588;-64
2023/08/01 09:29:07;;;;;;;6.03;3.43;;;20.00;99.90;;;;;;5021792;28;20252;-63
2023/08/01 09:31:36;;;;;;;3.33;3.03;;;19.90;99.90;;;;;;5023983;28;20734;-65
2023/08/01 09:34:05;;;;;;;4.07;3.20;;;19.80;99.90;;;;;;5025012;28;20210;-53
2023/08/01 09:36:32;;;;;;;4.80;4.30;;;19.70;99.90;;;;;;5028276;28;20199;-54
2023/08/01 09:39:01;;;;;;;3.37;3.10;;;19.70;99.90;;;;;;5023971;28;20221;-60
2023/08/01 09:41:29;;;;;;;3.63;3.10;;;19.70;99.90;;;;;;5023387;28;20202;-61
2023/08/01 09:43:56;;;;;;;3.27;2.90;;;19.70;99.90;;;;;;5024408;28;20214;-61
2023/08/01 09:46:23;;;;;;;4.30;3.30;;;19.70;99.90;;;;;;5023820;28;20222;-61
2023/08/01 09:48:50;;;;;;;3.70;3.40;;;19.80;99.90;;;;;;5024312;28;20223;-62
2023/08/01 09:51:19;;;;;;;3.50;3.27;;;19.80;99.90;;;;;;5025484;28;20236;-61
2023/08/01 09:53:52;;;;;;;4.80;4.07;;;19.90;99.90;;;;;;5024539;28;20202;-62
2023/08/01 09:56:22;;;;;;;3.77;3.43;;;19.90;99.90;;;;;;5024057;28;20289;-62
2023/08/01 09:58:50;;;;;;;6.50;3.60;;;19.80;99.90;;;;;;5023464;28;20233;-62
2023/08/01 10:01:18;;;;;;;3.93;3.63;;;19.90;99.90;;;;;;5023274;28;20669;-62
2023/08/01 10:03:47;;;;;;;5.27;4.77;;;20.00;99.90;;;;;;5023284;28;20268;-64
2023/08/01 10:06:20;;;;;;;7.43;4.63;;;20.10;99.90;;;;;;5012504;28;20669;-63
2023/08/01 10:08:48;;;;;;;5.67;4.87;;;20.10;99.90;;;;;;5026229;28;20260;-61
2023/08/01 10:11:17;;;;;;;4.40;4.00;;;20.10;99.90;;;;;;5032523;28;20207;-62
2023/08/01 10:13:47;;;;;;;5.33;4.60;;;20.10;99.90;;;;;;5031678;28;20273;-62
2023/08/01 10:16:15;;;;;;;5.47;4.87;;;19.90;99.90;;;;;;5032413;28;20207;-61
2023/08/01 10:18:43;;;;;;;4.73;4.23;;;19.90;99.90;;;;;;5031429;28;20280;-63
2023/08/01 10:21:14;;;;;;;4.90;4.33;;;19.90;99.90;;;;;;5016306;28;20252;-61
2023/08/01 10:23:41;;;;;;;4.43;4.03;;;20.00;99.90;;;;;;5022069;28;20207;-61
2023/08/01 10:26:10;;;;;;;5.17;4.63;;;20.00;99.90;;;;;;5023450;28;20238;-61
2023/08/01 10:28:39;;;;;;;5.17;4.20;;;20.10;99.90;;;;;;5026527;28;20913;-61
2023/08/01 10:31:13;;;;;;;4.77;4.30;;;20.20;99.90;;;;;;5023807;28;20194;-62
2023/08/01 10:33:40;;;;;;;3.97;3.67;;;20.20;99.90;;;;;;5023846;28;20252;-61
2023/08/01 10:36:15;;;;;;;5.00;4.33;;;20.20;99.90;;;;;;5023216;28;20233;-62
2023/08/01 10:38:49;;;;;;;5.47;3.83;;;20.10;99.90;;;;;;5024559;28;20214;-63
2023/08/01 10:41:21;;;;;;;4.67;4.27;;;19.90;99.90;;;;;;5022870;28;20302;-54
2023/08/01 10:43:48;;;;;;;4.87;4.47;;;19.90;99.90;;;;;;5023255;28;20248;-54
2023/08/01 10:46:16;;;;;;;6.63;4.77;;;19.80;99.90;;;;;;5027810;28;20256;-54
2023/08/01 10:48:50;;;;;;;6.13;5.10;;;19.70;99.90;;;;;;5026684;28;20226;-54
2023/08/01 10:51:17;;;;;;;5.17;4.73;;;19.60;99.90;;;;;;5023394;28;20209;-54
2023/08/01 10:53:45;;;;;;;5.40;4.90;;;19.60;99.90;;;;;;5022638;28;20221;-54
2023/08/01 10:56:19;;;;;;;6.20;5.23;;;19.60;99.90;;;;;;5021292;28;20687;-65
2023/08/01 10:58:46;;;;;;;6.57;5.93;;;19.60;99.90;;;;;;5020788;28;20311;-62
2023/08/01 11:01:13;;;;;;;6.83;4.60;;;19.70;99.90;;;;;;5022148;28;20215;-61
2023/08/01 11:03:42;;;;;;;5.90;4.40;;;19.70;99.90;;;;;;5023545;28;20606;-62
2023/08/01 11:06:09;;;;;;;4.60;4.10;;;19.80;99.90;;;;;;5022629;28;20254;-62
2023/08/01 11:08:37;;;;;;;4.10;3.73;;;19.70;99.90;;;;;;5022068;28;20226;-61
2023/08/01 11:11:06;;;;;;;3.63;3.43;;;19.70;99.90;;;;;;5023374;28;20245;-61
2023/08/01 11:13:34;;;;;;;4.73;3.53;;;19.70;99.90;;;;;;5024653;28;20241;-61
2023/08/01 11:16:03;;;;;;;6.03;4.27;;;19.70;99.90;;;;;;5026897;28;20256;-62
2023/08/01 11:18:30;;;;;;;5.37;3.07;;;19.80;99.90;;;;;;5027385;28;20579;-63
2023/08/01 11:20:59;;;;;;;4.13;3.53;;;19.80;99.90;;;;;;5023681;28;20640;-61
2023/08/01 11:23:30;;;;;;;3.23;2.93;;;19.70;99.90;;;;;;5025251;28;20194;-61
2023/08/01 11:25:57;;;;;;;3.97;3.53;;;19.60;99.90;;;;;;5026982;28;20233;-63
2023/08/01 11:28:24;;;;;;;6.23;4.03;;;19.50;99.90;;;;;;5026985;28;20234;-54
2023/08/01 11:30:51;;;;;;;3.13;2.93;;;19.50;99.90;;;;;;5029339;28;20627;-54
2023/08/01 11:33:20;;;;;;;2.63;2.47;;;19.50;99.90;;;;;;5030454;28;20269;-54
2023/08/01 11:35:50;;;;;;;2.03;1.97;;;19.40;99.90;;;;;;5027582;28;20222;-54
2023/08/01 11:38:19;;;;;;;2.77;2.57;;;19.40;99.90;;;;;;5024726;28;20266;-54
2023/08/01 11:40:49;;;;;;;3.17;2.13;;;19.40;99.90;;;;;;5027245;28;20268;-53
2023/08/01 11:43:16;;;;;;;2.90;2.80;;;19.40;99.90;;;;;;5025309;28;20237;-54
2023/08/01 11:45:54;;;;;;;3.80;2.87;;;19.50;99.90;;;;;;5026706;28;20252;-54
2023/08/01 11:48:22;;;;;;;2.50;2.40;;;19.40;99.90;;;;;;5026669;28;20230;-54
2023/08/01 11:50:49;;;;;;;5.03;2.67;;;19.40;99.90;;;;;;5029671;28;20210;-54
2023/08/01 11:53:22;;;;;;;4.17;2.07;;;19.30;99.90;;;;;;5027258;28;20202;-53
2023/08/01 11:55:49;;;;;;;2.07;1.87;;;19.20;99.90;;;;;;5029218;28;20277;-54
2023/08/01 11:58:16;;;;;;;2.33;2.13;;;19.20;99.90;;;;;;5019612;28;20226;-54
2023/08/01 12:00:43;;;;;;;2.63;2.43;;;19.10;99.90;;;;;;5034245;28;20668;-53
2023/08/01 12:03:13;;;;;;;2.43;2.33;;;19.20;99.90;;;;;;5034731;28;20293;-55
2023/08/01 12:05:41;;;;;;;2.60;2.50;;;19.20;99.90;;;;;;5034833;28;20716;-54
2023/08/01 12:08:12;;;;;;;3.17;2.97;;;19.30;99.90;;;;;;5030433;28;20233;-54
2023/08/01 12:10:42;;;;;;;2.87;2.67;;;19.40;99.90;;;;;;5023168;28;20278;-54
2023/08/01 12:13:21;;;;;;;2.50;2.30;;;19.50;99.90;;;;;;5014722;28;20206;-53
2023/08/01 12:15:48;;;;;;;3.17;2.90;;;19.50;99.90;;;;;;5014859;28;20286;-54
2023/08/01 12:18:21;;;;;;;4.40;3.17;;;19.50;99.90;;;;;;5015321;28;20306;-55
2023/08/01 12:20:48;;;;;;;2.67;2.50;;;19.40;99.90;;;;;;5014814;28;20889;-54
2023/08/01 12:23:15;;;;;;;4.07;2.87;;;19.40;99.90;;;;;;5023320;28;20211;-53
2023/08/01 12:25:43;;;;;;;2.70;2.50;;;19.40;99.90;;;;;;5025753;28;20202;-54
2023/08/01 12:28:10;;;;;;;3.57;2.67;;;19.30;99.90;;;;;;5021036;28;20689;-54
2023/08/01 12:30:41;;;;;;;4.10;3.67;;;19.30;99.90;;;;;;5034610;28;20253;-53
2023/08/01 12:33:08;;;;;;;3.80;3.57;;;19.40;99.90;;;;;;5034168;28;20228;-54
2023/08/01 12:35:35;;;;;;;3.43;3.00;;;19.40;99.90;;;;;;5032261;28;20238;-53
2023/08/01 12:38:01;;;;;;;3.87;3.57;;;19.50;99.90;;;;;;5022536;28;20806;-54
2023/08/01 12:40:28;;;;;;;3.87;2.67;;;19.60;99.90;;;;;;5022558;28;20199;-54
2023/08/01 12:42:57;;;;;;;3.17;2.97;;;19.60;99.90;;;;;;5014066;28;20226;-55
2023/08/01 12:45:24;;;;;;;2.77;2.67;;;19.60;99.90;;;;;;5014500;28;20203;-54
2023/08/01 12:47:54;;;;;;;3.30;3.10;;;19.70;99.90;;;;;;5014327;28;20300;-54
2023/08/01 12:50:21;;;;;;;2.67;2.47;;;19.80;99.90;;;;;;5014410;28;20273;-55